createdAt,value
2023-02-12T00:01:41.524Z,50.83
2023-02-12T00:04:10.225Z,48.13
2023-02-12T00:06:41.177Z,50.80
2023-02-12T00:09:09.869Z,47.10
2023-02-12T00:11:38.615Z,47.55
2023-02-12T00:14:07.309Z,43.40
2023-02-12T00:16:36.011Z,45.92
2023-02-12T00:19:04.929Z,43.92
2023-02-12T00:21:33.753Z,46.38
2023-02-12T00:24:02.874Z,48.53
2023-02-12T00:26:31.723Z,59.20
2023-02-12T00:29:00.358Z,60.78
2023-02-12T00:31:31.866Z,54.53
2023-02-12T00:34:01.781Z,50.47
2023-02-12T00:36:32.222Z,48.08
2023-02-12T00:39:04.177Z,50.10
2023-02-12T00:41:32.940Z,48.33
2023-02-12T00:44:01.599Z,47.53
2023-02-12T00:46:30.403Z,47.17
2023-02-12T00:48:59.135Z,50.78
2023-02-12T00:51:27.853Z,53.08
2023-02-12T00:53:56.538Z,50.42
2023-02-12T00:56:25.243Z,51.15
2023-02-12T00:58:53.914Z,51.63
2023-02-12T01:01:22.633Z,51.45
2023-02-12T01:03:51.286Z,54.20
2023-02-12T01:06:20.051Z,60.72
2023-02-12T01:08:52.549Z,59.42
2023-02-12T01:11:21.872Z,64.25
2023-02-12T01:13:50.871Z,67.45
2023-02-12T01:16:23.115Z,60.35
2023-02-12T01:18:55.990Z,68.18
2023-02-12T01:21:29.158Z,58.70
2023-02-12T01:23:59.119Z,60.22
2023-02-12T01:26:28.723Z,63.85
2023-02-12T01:29:02.446Z,62.78
2023-02-12T01:31:35.411Z,56.50
2023-02-12T01:36:32.963Z,55.58
2023-02-12T01:39:03.870Z,53.60
2023-02-12T01:41:35.916Z,50.88
2023-02-12T01:44:23.210Z,50.70
2023-02-12T01:46:58.503Z,50.35
2023-02-12T01:49:30.674Z,49.88
2023-02-12T01:52:25.913Z,49.90
2023-02-12T01:54:57.366Z,47.55
2023-02-12T01:57:27.882Z,49.28
2023-02-12T02:00:01.117Z,45.85
2023-02-12T02:02:30.173Z,46.13
2023-02-12T02:05:02.933Z,44.22
2023-02-12T02:10:00.513Z,45.13
2023-02-12T02:12:49.473Z,45.03
2023-02-12T02:15:18.414Z,46.13
2023-02-12T02:18:17.293Z,45.75
2023-02-12T02:20:47.948Z,43.50
2023-02-12T02:23:40.815Z,45.67
2023-02-12T02:26:22.457Z,45.10
2023-02-12T02:29:30.364Z,44.00
2023-02-12T02:32:07.191Z,43.83
2023-02-12T02:34:48.735Z,44.10
2023-02-12T02:37:24.445Z,40.80
2023-02-12T02:39:55.985Z,42.72
2023-02-12T02:42:39.097Z,42.53
2023-02-12T02:45:20.179Z,41.33
2023-02-12T02:48:13.372Z,39.40
2023-02-12T02:53:17.989Z,41.85
2023-02-12T02:55:52.782Z,42.13
2023-02-12T02:58:27.015Z,40.90
2023-02-12T03:01:03.692Z,38.72
2023-02-12T03:03:41.364Z,40.42
2023-02-12T03:06:18.436Z,42.03
2023-02-12T03:08:56.034Z,36.38
2023-02-12T03:11:30.012Z,35.83
2023-02-12T03:14:07.749Z,37.13
2023-02-12T03:16:42.787Z,39.70
2023-02-12T03:19:17.697Z,38.08
2023-02-12T03:21:50.479Z,34.05
2023-02-12T03:27:21.853Z,30.60
2023-02-12T03:29:51.475Z,29.98
2023-02-12T03:32:47.699Z,31.15
2023-02-12T03:35:31.934Z,32.13
2023-02-12T03:38:07.020Z,28.73
2023-02-12T03:40:50.385Z,29.50
2023-02-12T03:43:23.446Z,31.65
2023-02-12T03:46:00.367Z,34.58
2023-02-12T03:48:38.619Z,32.88
2023-02-12T03:51:31.264Z,35.78
2023-02-12T03:54:00.247Z,34.22
2023-02-12T03:57:06.866Z,33.17
2023-02-12T03:59:39.182Z,28.25
2023-02-12T04:02:08.445Z,27.60
2023-02-12T04:04:37.896Z,29.20
2023-02-12T04:07:06.724Z,30.48
2023-02-12T04:09:35.384Z,30.88
2023-02-12T04:12:11.162Z,27.92
2023-02-12T04:15:09.035Z,27.23
2023-02-12T04:17:42.497Z,24.27
2023-02-12T04:20:39.146Z,24.88
2023-02-12T04:23:14.096Z,26.38
2023-02-12T04:25:59.099Z,25.38
2023-02-12T04:28:45.395Z,25.73
2023-02-12T04:31:20.128Z,24.27
2023-02-12T04:34:11.456Z,20.65
2023-02-12T04:36:50.571Z,22.88
2023-02-12T04:39:24.102Z,22.00
2023-02-12T04:41:53.074Z,23.58
2023-02-12T04:44:26.941Z,23.27
2023-02-12T04:46:55.724Z,20.77
2023-02-12T04:49:25.718Z,23.45
2023-02-12T04:51:54.765Z,23.85
2023-02-12T04:54:24.356Z,24.52
2023-02-12T04:56:53.194Z,22.30
2023-02-12T04:59:22.216Z,21.73
2023-02-12T05:01:51.138Z,20.98
2023-02-12T05:04:20.936Z,23.45
2023-02-12T05:06:49.631Z,21.75
2023-02-12T05:09:20.967Z,22.70
2023-02-12T05:11:49.647Z,21.42
2023-02-12T05:14:18.288Z,21.20
2023-02-12T05:16:46.993Z,21.70
2023-02-12T05:19:15.764Z,22.15
2023-02-12T05:21:44.462Z,20.90
2023-02-12T05:24:13.129Z,19.48
2023-02-12T05:26:41.946Z,20.35
2023-02-12T05:29:10.692Z,19.73
2023-02-12T05:31:39.688Z,20.25
2023-02-12T05:34:11.441Z,19.80
2023-02-12T05:36:40.762Z,18.67
2023-02-12T05:39:09.546Z,18.23
2023-02-12T05:41:38.190Z,18.27
2023-02-12T05:44:07.652Z,18.38
2023-02-12T05:46:36.324Z,18.02
2023-02-12T05:49:05.162Z,20.88
2023-02-12T05:51:34.125Z,25.45
2023-02-12T05:54:05.632Z,20.95
2023-02-12T05:56:37.024Z,20.23
2023-02-12T05:59:10.253Z,18.88
2023-02-12T06:01:41.485Z,20.02
2023-02-12T06:04:15.934Z,19.27
2023-02-12T06:06:45.292Z,18.55
2023-02-12T06:09:15.007Z,19.08
2023-02-12T06:11:44.755Z,20.30
2023-02-12T06:14:16.994Z,16.13
2023-02-12T06:16:50.110Z,17.23
2023-02-12T06:19:20.140Z,17.17
2023-02-12T06:21:49.163Z,16.95
2023-02-12T06:24:18.852Z,16.20
2023-02-12T06:26:50.688Z,15.82
2023-02-12T06:29:20.452Z,15.83
2023-02-12T06:31:49.992Z,15.05
2023-02-12T06:34:19.621Z,16.55
2023-02-12T06:36:49.561Z,16.50
2023-02-12T06:39:19.036Z,16.90
2023-02-12T06:41:47.728Z,16.35
2023-02-12T06:44:16.648Z,16.92
2023-02-12T06:46:45.713Z,15.13
2023-02-12T06:49:15.445Z,16.75
2023-02-12T06:51:44.314Z,16.55
2023-02-12T06:54:16.403Z,16.25
2023-02-12T06:56:45.751Z,16.35
2023-02-12T06:59:16.569Z,15.68
2023-02-12T07:01:45.492Z,15.95
2023-02-12T07:04:14.493Z,16.33
2023-02-12T07:06:43.287Z,15.60
2023-02-12T07:09:12.049Z,15.50
2023-02-12T07:11:40.995Z,15.13
2023-02-12T07:14:09.712Z,15.30
2023-02-12T07:16:38.415Z,14.80
2023-02-12T07:19:07.090Z,15.27
2023-02-12T07:21:35.921Z,15.32
2023-02-12T07:24:04.625Z,17.05
2023-02-12T07:26:33.324Z,17.15
2023-02-12T07:29:01.988Z,14.82
2023-02-12T07:31:30.965Z,14.45
2023-02-12T07:34:01.238Z,14.77
2023-02-12T07:36:32.394Z,14.20
2023-02-12T07:39:02.538Z,14.82
2023-02-12T07:41:33.924Z,14.18
2023-02-12T07:44:08.600Z,13.60
2023-02-12T07:46:40.104Z,13.93
2023-02-12T07:49:11.828Z,13.48
2023-02-12T07:51:40.798Z,13.93
2023-02-12T07:54:09.903Z,13.77
2023-02-12T07:56:40.362Z,13.05
2023-02-12T07:59:13.826Z,12.55
2023-02-12T08:01:45.340Z,11.85
2023-02-12T08:04:16.249Z,11.45
2023-02-12T08:06:47.955Z,11.90
2023-02-12T08:09:20.029Z,12.27
2023-02-12T08:11:49.479Z,12.02
2023-02-12T08:14:20.374Z,11.40
2023-02-12T08:16:50.938Z,12.73
2023-02-12T08:19:24.937Z,11.68
2023-02-12T08:21:56.097Z,12.57
2023-02-12T08:24:25.610Z,11.45
2023-02-12T08:26:54.638Z,11.30
2023-02-12T08:29:26.704Z,12.05
2023-02-12T08:32:04.714Z,11.25
2023-02-12T08:34:37.070Z,11.02
2023-02-12T08:37:08.956Z,11.35
2023-02-12T08:39:37.681Z,11.80
2023-02-12T08:42:06.830Z,11.40
2023-02-12T08:44:35.530Z,11.02
2023-02-12T08:47:04.174Z,11.35
2023-02-12T08:49:32.953Z,11.23
2023-02-12T08:52:03.392Z,11.43
2023-02-12T08:54:33.672Z,9.88
2023-02-12T08:57:04.111Z,10.77
2023-02-12T08:59:33.316Z,10.02
2023-02-12T09:02:02.853Z,9.43
2023-02-12T09:04:31.840Z,10.50
2023-02-12T09:07:00.617Z,10.68
2023-02-12T09:09:29.301Z,10.90
2023-02-12T09:11:58.028Z,10.18
2023-02-12T09:14:26.781Z,9.70
2023-02-12T09:16:58.468Z,10.50
2023-02-12T09:19:27.438Z,9.37
2023-02-12T09:21:57.264Z,9.88
2023-02-12T09:24:28.487Z,9.50
2023-02-12T09:26:57.571Z,9.07
2023-02-12T09:29:26.472Z,9.52
2023-02-12T09:31:55.353Z,9.68
2023-02-12T09:34:24.241Z,9.35
2023-02-12T09:36:52.921Z,9.43
2023-02-12T09:39:21.649Z,8.52
2023-02-12T09:42:19.002Z,9.10
2023-02-12T09:45:11.249Z,8.98
2023-02-12T09:47:59.945Z,8.93
2023-02-12T09:50:46.110Z,8.77
2023-02-12T09:53:17.883Z,9.02
2023-02-12T09:55:47.113Z,8.50
2023-02-12T09:58:25.164Z,8.45
2023-02-12T10:00:53.839Z,8.60
2023-02-12T10:03:23.241Z,7.85
2023-02-12T10:06:00.145Z,8.07
2023-02-12T10:08:41.389Z,7.88
2023-02-12T10:11:14.496Z,7.90
2023-02-12T10:14:04.200Z,7.60
2023-02-12T10:16:56.384Z,7.18
2023-02-12T10:20:04.289Z,7.70
2023-02-12T10:23:08.519Z,7.50
2023-02-12T10:25:45.945Z,7.78
2023-02-12T10:28:19.284Z,7.32
2023-02-12T10:31:04.778Z,7.90
2023-02-12T10:33:39.125Z,7.70
2023-02-12T10:36:23.214Z,7.45
2023-02-12T10:38:57.969Z,7.38
2023-02-12T10:41:28.687Z,8.02
2023-02-12T10:43:57.905Z,7.65
2023-02-12T10:46:26.535Z,7.53
2023-02-12T10:48:59.730Z,7.90
2023-02-12T10:51:55.973Z,7.93
2023-02-12T10:54:46.198Z,7.03
2023-02-12T10:57:15.806Z,8.10
2023-02-12T10:59:47.387Z,7.72
2023-02-12T11:02:31.676Z,7.65
2023-02-12T11:05:03.679Z,8.20
2023-02-12T11:07:49.295Z,7.80
2023-02-12T11:10:41.794Z,8.30
2023-02-12T11:13:29.141Z,8.73
2023-02-12T11:15:58.396Z,8.18
2023-02-12T11:18:30.075Z,8.20
2023-02-12T11:21:01.960Z,8.50
2023-02-12T11:23:33.040Z,8.73
2023-02-12T11:26:05.264Z,8.77
2023-02-12T11:28:37.183Z,8.50
2023-02-12T11:31:23.525Z,8.80
2023-02-12T11:34:17.453Z,8.82
2023-02-12T11:36:49.436Z,8.98
2023-02-12T11:39:25.680Z,9.43
2023-02-12T11:41:57.408Z,8.15
2023-02-12T11:44:38.363Z,8.93
2023-02-12T11:47:12.594Z,9.93
2023-02-12T11:49:55.338Z,9.43
2023-02-12T11:52:28.887Z,9.30
2023-02-12T11:55:04.273Z,9.45
2023-02-12T11:57:50.640Z,9.57
2023-02-12T12:00:30.760Z,9.43
2023-02-12T12:03:08.922Z,9.77
2023-02-12T12:05:44.501Z,9.82
2023-02-12T12:08:37.311Z,10.40
2023-02-12T12:11:26.087Z,11.30
2023-02-12T12:14:00.540Z,12.15
2023-02-12T12:17:15.914Z,11.90
2023-02-12T12:19:57.465Z,12.02
2023-02-12T12:22:38.728Z,11.98
2023-02-12T12:25:17.444Z,12.25
2023-02-12T12:28:10.903Z,12.32
2023-02-12T12:31:00.740Z,11.15
2023-02-12T12:33:53.089Z,12.45
2023-02-12T12:36:26.242Z,12.90
2023-02-12T12:39:34.078Z,11.48
2023-02-12T12:42:42.138Z,12.40
2023-02-12T12:45:19.894Z,12.18
2023-02-12T12:48:16.099Z,12.57
2023-02-12T12:50:45.643Z,12.65
2023-02-12T12:53:29.644Z,14.02
2023-02-12T12:56:14.714Z,13.52
2023-02-12T12:58:54.739Z,13.73
2023-02-12T13:01:38.388Z,14.23
2023-02-12T13:04:34.016Z,14.25
2023-02-12T13:07:33.665Z,14.98
2023-02-12T13:10:22.266Z,14.00
2023-02-12T13:13:07.331Z,15.43
2023-02-12T13:15:56.356Z,15.75
2023-02-12T13:18:49.609Z,15.80
2023-02-12T13:24:11.909Z,15.05
2023-02-12T13:26:50.332Z,16.10
2023-02-12T13:29:27.919Z,15.60
2023-02-12T13:32:09.448Z,15.13
2023-02-12T13:34:40.610Z,14.77
2023-02-12T13:37:16.671Z,15.35
2023-02-12T13:39:49.323Z,15.07
2023-02-12T13:45:13.092Z,14.00
2023-02-12T13:48:07.612Z,15.63
2023-02-12T13:50:43.270Z,15.70
2023-02-12T13:53:47.533Z,14.18
2023-02-12T13:56:52.335Z,15.68
2023-02-12T13:59:37.434Z,15.50
2023-02-12T14:02:08.081Z,15.43
2023-02-12T14:05:00.927Z,16.83
2023-02-12T14:07:48.562Z,17.10
2023-02-12T14:10:28.425Z,15.70
2023-02-12T14:13:12.476Z,15.55
2023-02-12T14:15:46.120Z,16.38
2023-02-12T14:18:36.081Z,15.65
2023-02-12T14:21:13.274Z,16.10
2023-02-12T14:23:43.925Z,16.58
2023-02-12T14:26:16.537Z,17.15
2023-02-12T14:29:05.958Z,18.05
2023-02-12T14:31:37.398Z,19.77
2023-02-12T14:34:08.552Z,20.75
2023-02-12T14:36:41.671Z,18.90
2023-02-12T14:39:26.803Z,18.80
2023-02-12T14:42:16.217Z,19.58
2023-02-12T14:45:00.471Z,19.83
2023-02-12T14:47:33.593Z,18.80
2023-02-12T14:50:13.827Z,18.88
2023-02-12T14:52:49.876Z,20.05
2023-02-12T14:55:24.485Z,18.73
2023-02-12T14:57:59.577Z,19.42
2023-02-12T15:00:34.377Z,21.30
2023-02-12T15:03:26.120Z,20.50
2023-02-12T15:05:59.275Z,21.30
2023-02-12T15:08:45.604Z,22.83
2023-02-12T15:11:41.954Z,22.35
2023-02-12T15:14:32.180Z,22.58
2023-02-12T15:17:26.459Z,23.02
2023-02-12T15:20:00.793Z,22.50
2023-02-12T15:22:45.296Z,24.58
2023-02-12T15:25:32.824Z,24.20
2023-02-12T15:28:13.125Z,23.52
2023-02-12T15:30:44.393Z,22.85
2023-02-12T15:33:28.092Z,22.33
2023-02-12T15:35:57.947Z,24.65
2023-02-12T15:38:38.483Z,22.85
2023-02-12T15:41:08.151Z,23.73
2023-02-12T15:43:42.473Z,25.00
2023-02-12T15:46:19.269Z,23.77
2023-02-12T15:48:48.451Z,24.15
2023-02-12T15:51:33.516Z,25.80
2023-02-12T15:54:05.248Z,24.98
2023-02-12T15:56:37.149Z,26.20
2023-02-12T15:59:06.282Z,25.77
2023-02-12T16:01:36.634Z,24.60
2023-02-12T16:04:07.942Z,24.83
2023-02-12T16:06:37.865Z,25.40
2023-02-12T16:09:29.885Z,24.65
2023-02-12T16:12:03.470Z,25.85
2023-02-12T16:14:44.385Z,25.50
2023-02-12T16:17:31.427Z,26.48
2023-02-12T16:20:02.964Z,27.10
2023-02-12T16:22:40.435Z,25.88
2023-02-12T16:25:22.196Z,27.08
2023-02-12T16:28:15.319Z,26.92
2023-02-12T16:33:33.118Z,25.73
2023-02-12T16:36:07.090Z,25.25
2023-02-12T16:38:40.296Z,26.10
2023-02-12T16:41:22.200Z,26.42
2023-02-12T16:44:13.346Z,25.73
2023-02-12T16:46:52.554Z,25.30
2023-02-12T16:49:24.864Z,25.83
2023-02-12T16:51:54.752Z,24.67
2023-02-12T16:54:34.611Z,26.05
2023-02-12T16:57:03.858Z,25.85
2023-02-12T17:04:08.233Z,26.05
2023-02-12T17:06:37.041Z,25.77
2023-02-12T17:09:05.899Z,27.23
2023-02-12T17:11:34.758Z,25.65
2023-02-12T17:14:03.575Z,26.23
2023-02-12T17:16:32.627Z,26.60
2023-02-12T17:19:02.460Z,27.58
2023-02-12T17:21:38.846Z,26.80
2023-02-12T17:24:30.227Z,26.80
2023-02-12T17:26:59.976Z,27.45
2023-02-12T17:29:31.775Z,28.40
2023-02-12T17:32:00.904Z,26.90
2023-02-12T17:34:34.117Z,26.95
2023-02-12T17:37:08.718Z,26.45
2023-02-12T17:39:37.571Z,26.83
2023-02-12T17:42:07.547Z,26.75
2023-02-12T17:44:36.430Z,27.02
2023-02-12T17:47:05.299Z,26.08
2023-02-12T17:49:35.052Z,25.98
2023-02-12T17:52:06.988Z,27.00
2023-02-12T17:54:36.131Z,25.80
2023-02-12T17:57:05.272Z,27.95
2023-02-12T17:59:34.137Z,26.35
2023-02-12T18:02:03.734Z,26.55
2023-02-12T18:04:36.848Z,26.02
2023-02-12T18:07:06.729Z,26.30
2023-02-12T18:09:37.654Z,27.30
2023-02-12T18:12:07.432Z,26.60
2023-02-12T18:14:36.254Z,27.02
2023-02-12T18:17:05.139Z,26.10
2023-02-12T18:19:33.991Z,25.65
2023-02-12T18:22:03.154Z,26.38
2023-02-12T18:24:34.299Z,27.42
2023-02-12T18:27:03.424Z,26.63
2023-02-12T18:29:32.239Z,26.45
2023-02-12T18:32:01.003Z,27.55
2023-02-12T18:34:29.808Z,26.55
2023-02-12T18:36:58.772Z,28.08
2023-02-12T18:39:27.805Z,28.05
2023-02-12T18:41:56.633Z,27.80
2023-02-12T18:44:25.506Z,26.55
2023-02-12T18:46:54.361Z,26.73
2023-02-12T18:49:23.132Z,28.08
2023-02-12T18:51:51.928Z,27.73
2023-02-12T18:54:21.090Z,27.40
2023-02-12T18:56:54.362Z,28.25
2023-02-12T18:59:25.179Z,27.75
2023-02-12T19:01:55.142Z,27.20
2023-02-12T19:04:27.467Z,27.38
2023-02-12T19:06:56.894Z,28.25
2023-02-12T19:09:27.769Z,28.10
2023-02-12T19:11:58.476Z,27.60
2023-02-12T19:14:28.595Z,27.48
2023-02-12T19:16:57.499Z,28.15
2023-02-12T19:19:27.894Z,28.33
2023-02-12T19:21:56.561Z,27.08
2023-02-12T19:24:26.225Z,28.42
2023-02-12T19:26:57.404Z,27.67
2023-02-12T19:29:26.165Z,27.10
2023-02-12T19:31:54.933Z,27.50
2023-02-12T19:34:29.802Z,27.67
2023-02-12T19:36:58.514Z,30.25
2023-02-12T19:39:27.433Z,27.10
2023-02-12T19:41:58.840Z,29.48
2023-02-12T19:44:27.775Z,30.00
2023-02-12T19:46:57.504Z,30.42
2023-02-12T19:49:28.078Z,30.40
2023-02-12T19:51:56.720Z,31.20
2023-02-12T19:54:26.195Z,30.52
2023-02-12T19:56:56.340Z,30.65
2023-02-12T19:59:27.811Z,31.17
2023-02-12T20:01:57.478Z,30.55
2023-02-12T20:04:26.897Z,30.63
2023-02-12T20:06:56.671Z,30.15
2023-02-12T20:09:25.520Z,31.83
2023-02-12T20:11:54.746Z,31.30
2023-02-12T20:14:23.626Z,31.13
2023-02-12T20:16:54.780Z,32.08
2023-02-12T20:19:27.571Z,31.42
2023-02-12T20:24:29.337Z,31.75
2023-02-12T20:27:00.201Z,32.15
2023-02-12T20:29:29.860Z,32.45
2023-02-12T20:31:59.491Z,31.58
2023-02-12T20:34:28.224Z,30.67
2023-02-12T20:36:56.945Z,32.05
2023-02-12T20:39:28.652Z,31.42
2023-02-12T20:41:57.270Z,33.03
2023-02-12T20:44:25.956Z,31.30
2023-02-12T20:46:57.729Z,31.70
2023-02-12T20:49:26.829Z,32.28
2023-02-12T20:51:55.641Z,31.63
2023-02-12T20:54:24.421Z,32.20
2023-02-12T20:56:53.976Z,30.17
2023-02-12T20:59:22.635Z,31.95
2023-02-12T21:01:51.423Z,33.42
2023-02-12T21:04:21.081Z,32.00
2023-02-12T21:06:49.864Z,32.88
2023-02-12T21:09:19.898Z,32.78
2023-02-12T21:11:49.270Z,32.20
2023-02-12T21:14:23.548Z,147.38
2023-02-12T21:16:54.954Z,33.55
2023-02-12T21:19:24.408Z,34.08
2023-02-12T21:21:53.294Z,33.92
2023-02-12T21:24:24.797Z,33.40
2023-02-12T21:26:54.971Z,32.65
2023-02-12T21:29:24.258Z,33.83
2023-02-12T21:31:53.087Z,32.20
2023-02-12T21:34:23.823Z,33.38
2023-02-12T21:36:55.479Z,34.47
2023-02-12T21:39:28.268Z,34.15
2023-02-12T21:42:03.340Z,33.63
2023-02-12T21:44:40.575Z,34.08
2023-02-12T21:47:09.881Z,35.90
2023-02-12T21:49:38.537Z,36.65
2023-02-12T21:52:07.661Z,34.20
2023-02-12T21:54:36.610Z,33.55
2023-02-12T21:57:05.429Z,34.95
2023-02-12T21:59:37.151Z,34.90
2023-02-12T22:02:07.010Z,34.45
2023-02-12T22:04:35.687Z,34.85
2023-02-12T22:07:04.873Z,35.42
2023-02-12T22:09:33.679Z,34.28
2023-02-12T22:12:02.528Z,36.63
2023-02-12T22:14:31.345Z,37.15
2023-02-12T22:17:00.211Z,38.85
2023-02-12T22:19:29.011Z,37.85
2023-02-12T22:21:57.635Z,39.97
2023-02-12T22:24:26.262Z,42.05
2023-02-12T22:26:56.048Z,44.90
2023-02-12T22:29:24.708Z,44.97
2023-02-12T22:31:53.701Z,44.70
2023-02-12T22:34:22.495Z,46.33
2023-02-12T22:36:51.239Z,46.38
2023-02-12T22:39:20.340Z,49.47
2023-02-12T22:41:49.343Z,49.42
2023-02-12T22:44:21.081Z,49.38
2023-02-12T22:46:51.185Z,51.97
2023-02-12T22:49:20.002Z,52.22
2023-02-12T22:51:48.739Z,49.33
2023-02-12T22:54:18.734Z,43.47
2023-02-12T22:56:51.160Z,42.65
2023-02-12T22:59:20.402Z,43.15
2023-02-12T23:01:49.071Z,42.70
2023-02-12T23:04:20.705Z,42.30
2023-02-12T23:06:49.622Z,42.92
2023-02-12T23:09:20.072Z,43.90
2023-02-12T23:11:49.895Z,43.58
2023-02-12T23:14:19.174Z,44.15
2023-02-12T23:16:48.544Z,41.92
2023-02-12T23:19:17.304Z,43.17
2023-02-12T23:21:46.039Z,40.13
2023-02-12T23:24:15.831Z,41.70
2023-02-12T23:26:44.779Z,42.72
2023-02-12T23:29:13.896Z,41.72
2023-02-12T23:31:42.660Z,40.92
2023-02-12T23:34:11.426Z,41.53
2023-02-12T23:36:40.125Z,41.47
2023-02-12T23:39:10.369Z,43.03
2023-02-12T23:41:39.179Z,49.28
2023-02-12T23:44:07.962Z,42.35
2023-02-12T23:46:36.703Z,41.28
2023-02-12T23:49:05.721Z,42.63
2023-02-12T23:51:34.914Z,43.53
2023-02-12T23:54:03.701Z,42.80
2023-02-12T23:56:32.469Z,41.05
2023-02-12T23:59:01.123Z,44.33
